Time;durP1;ratioP1;P1;durP2;ratioP2;P2;SDS_P1;SDS_P2;PMS_P1;PMS_P2;Temp;Humidity;BMP_temperature;BMP_pressure;BME280_temperature;BME280_humidity;BME280_pressure;Samples;Min_cycle;Max_cycle;Signal;HPM_P1;HPM_P2
2022/01/29 00:01:52;;;;;;;51.40;28.73;;;;;;;4.13;86.48;102848.25;10494275;28;20044;-79
2022/01/29 00:06:53;;;;;;;56.65;35.72;;;;;;;4.14;86.68;102821.59;10492765;28;20123;-79
2022/01/29 00:11:53;;;;;;;56.40;30.50;;;;;;;4.13;86.41;102811.97;10493994;28;20125;-80
2022/01/29 00:16:54;;;;;;;64.85;33.22;;;;;;;4.14;86.39;102797.31;10476280;28;20381;-80
2022/01/29 00:21:54;;;;;;;56.60;32.85;;;;;;;4.13;86.43;102804.19;10494762;28;20530;-80
2022/01/29 00:26:55;;;;;;;58.58;30.42;;;;;;;4.13;86.44;102816.22;10475664;28;20025;-79
2022/01/29 00:31:55;;;;;;;53.95;31.15;;;;;;;4.10;86.68;102822.91;10492128;28;20534;-80
2022/01/29 00:36:56;;;;;;;50.90;30.90;;;;;;;4.19;86.46;102811.69;10475752;28;20036;-80
2022/01/29 00:41:56;;;;;;;57.00;35.22;;;;;;;4.16;86.38;102809.72;10502428;28;20087;-80
2022/01/29 00:46:57;;;;;;;49.60;30.25;;;;;;;4.21;85.97;102800.75;10499976;28;20032;-79
2022/01/29 00:51:57;;;;;;;55.22;27.30;;;;;;;4.22;86.04;102801.63;10502067;28;20040;-80
2022/01/29 00:56:58;;;;;;;58.13;29.27;;;;;;;4.18;86.69;102797.81;10500545;28;20521;-79
2022/01/29 01:01:59;;;;;;;49.03;28.63;;;;;;;4.24;85.61;102771.59;10499893;28;20111;-79
2022/01/29 01:07:00;;;;;;;49.17;27.80;;;;;;;4.26;85.61;102773.63;10498919;28;20043;-79
2022/01/29 01:12:00;;;;;;;52.80;29.23;;;;;;;4.32;85.57;102762.94;10483106;28;20059;-80
2022/01/29 01:17:01;;;;;;;49.13;28.48;;;;;;;4.29;84.95;102757.44;10483025;28;20039;-79
2022/01/29 01:22:02;;;;;;;47.25;28.50;;;;;;;4.33;85.41;102745.75;10500123;28;20020;-80
2022/01/29 01:27:03;;;;;;;46.20;26.27;;;;;;;4.36;84.99;102721.03;10481638;28;20056;-79
2022/01/29 01:32:04;;;;;;;51.92;26.83;;;;;;;4.33;85.00;102712.94;10501778;28;20032;-80
2022/01/29 01:37:09;;;;;;;54.92;28.65;;;;;;;4.33;85.16;102712.03;10498822;28;20044;-80
2022/01/29 01:42:10;;;;;;;51.63;29.20;;;;;;;4.30;85.84;102704.84;10498493;28;20056;-79
2022/01/29 01:47:11;;;;;;;46.60;27.75;;;;;;;4.33;85.49;102701.66;10498625;28;20177;-79
2022/01/29 01:52:13;;;;;;;47.20;28.30;;;;;;;4.31;85.41;102690.22;10497942;28;20448;-80
2022/01/29 01:57:13;;;;;;;53.47;25.10;;;;;;;4.27;85.93;102676.00;10498322;28;20063;-79
2022/01/29 02:02:14;;;;;;;49.20;28.13;;;;;;;4.25;85.83;102664.56;10497874;28;20428;-79
2022/01/29 02:07:15;;;;;;;46.20;25.50;;;;;;;4.19;86.60;102676.91;10456015;28;20037;-80
2022/01/29 02:12:15;;;;;;;45.58;26.33;;;;;;;4.16;86.45;102679.19;10468827;28;20032;-80
2022/01/29 02:17:16;;;;;;;51.65;26.00;;;;;;;4.05;87.32;102666.03;10497267;28;20119;-80
2022/01/29 02:22:17;;;;;;;45.92;28.05;;;;;;;4.09;87.23;102651.75;10498576;28;20508;-79
2022/01/29 02:27:17;;;;;;;46.10;25.98;;;;;;;4.01;87.47;102647.44;10480317;28;20028;-79
2022/01/29 02:32:18;;;;;;;44.72;26.58;;;;;;;4.03;87.93;102636.47;10497060;28;20046;-79
2022/01/29 02:37:18;;;;;;;59.00;27.27;;;;;;;4.06;87.91;102633.28;10498050;28;20092;-79
2022/01/29 02:42:19;;;;;;;40.55;25.60;;;;;;;4.04;87.99;102622.75;10497164;28;20407;-79
2022/01/29 02:47:33;;;;;;;38.97;24.80;;;;;;;4.07;87.68;102624.75;10497573;28;20476;-79
2022/01/29 02:52:33;;;;;;;48.88;27.33;;;;;;;4.07;88.23;102623.06;10496728;28;20042;-80
2022/01/29 02:57:33;;;;;;;40.10;27.30;;;;;;;4.08;88.14;102614.53;10495719;28;20464;-79
2022/01/29 03:02:34;;;;;;;45.40;24.75;;;;;;;4.11;88.68;102603.56;10497100;28;20025;-80
2022/01/29 03:07:35;;;;;;;44.38;23.70;;;;;;;4.13;88.47;102595.94;10494322;28;20459;-79
2022/01/29 03:12:37;;;;;;;49.40;23.15;;;;;;;4.14;89.06;102593.53;10478337;28;20072;-79
2022/01/29 03:17:38;;;;;;;45.90;25.50;;;;;;;4.17;88.35;102586.06;10478725;28;20048;-80
2022/01/29 03:22:38;;;;;;;43.15;25.80;;;;;;;4.09;89.21;102590.44;10477562;28;20547;-79
2022/01/29 03:27:39;;;;;;;47.92;23.75;;;;;;;4.09;88.94;102582.66;10495334;28;20039;-79
2022/01/29 03:32:39;;;;;;;41.50;21.75;;;;;;;4.13;89.37;102567.44;10493844;28;20075;-79
2022/01/29 03:37:40;;;;;;;43.17;25.65;;;;;;;4.15;90.09;102558.13;10477815;28;20056;-80
2022/01/29 03:42:55;;;;;;;41.75;28.42;;;;;;;4.11;90.27;102546.56;10494915;28;20079;-80
2022/01/29 03:47:56;;;;;;;44.15;25.92;;;;;;;4.10;90.43;102543.03;10494153;28;20032;-79
2022/01/29 03:52:56;;;;;;;45.53;29.00;;;;;;;4.07;90.96;102539.25;10495556;28;20080;-80
2022/01/29 03:57:57;;;;;;;49.47;28.20;;;;;;;4.02;91.32;102546.53;10475793;28;20059;-80
2022/01/29 04:02:57;;;;;;;53.55;27.23;;;;;;;3.96;92.30;102539.06;10459473;28;20020;-80
2022/01/29 04:07:58;;;;;;;44.35;25.95;;;;;;;3.95;91.89;102526.88;10476490;28;20490;-80
2022/01/29 04:12:58;;;;;;;41.45;26.35;;;;;;;3.99;92.44;102524.59;10494770;28;20040;-81
2022/01/29 04:17:59;;;;;;;45.65;26.63;;;;;;;3.96;92.63;102522.59;10494552;28;20063;-80
2022/01/29 04:23:00;;;;;;;51.70;27.05;;;;;;;3.98;93.05;102513.31;10492935;28;20118;-80
2022/01/29 04:28:01;;;;;;;29.10;16.00;;;;;;;4.02;93.29;102527.50;10493926;28;20414;-80
2022/01/29 04:33:04;;;;;;;31.13;21.40;;;;;;;4.03;92.69;102530.22;10475459;28;20120;-81
2022/01/29 04:38:04;;;;;;;34.28;20.38;;;;;;;4.04;93.26;102523.38;10493752;28;20282;-80
2022/01/29 04:43:05;;;;;;;35.75;19.20;;;;;;;4.06;93.20;102508.91;10493864;28;20548;-81
2022/01/29 04:48:05;;;;;;;31.05;18.85;;;;;;;4.10;92.76;102513.63;10476531;28;20079;-81
2022/01/29 04:53:06;;;;;;;31.92;20.20;;;;;;;4.15;92.80;102503.72;10470488;28;20354;-80
2022/01/29 04:58:06;;;;;;;30.92;19.05;;;;;;;4.18;93.23;102506.63;10451333;28;20075;-80
2022/01/29 05:03:10;;;;;;;32.63;18.83;;;;;;;4.22;92.81;102486.34;10485274;28;20472;-82
2022/01/29 05:08:13;;;;;;;30.58;20.00;;;;;;;4.25;93.01;102498.69;10491112;28;20396;-80
2022/01/29 05:13:19;;;;;;;29.67;19.05;;;;;;;4.25;93.48;102486.66;10491563;28;20043;-81
2022/01/29 05:29:14;;;;;;;24.58;14.75;;;;;;;4.46;92.46;102471.41;10473320;28;20021;-77
2022/01/29 05:34:15;;;;;;;28.73;19.45;;;;;;;4.54;92.56;102464.34;10481585;28;20449;-78
2022/01/29 05:39:16;;;;;;;24.55;15.40;;;;;;;4.59;92.10;102449.25;10498687;28;20060;-80
2022/01/29 05:44:18;;;;;;;27.85;16.85;;;;;;;4.59;92.68;102470.91;10499458;28;20040;-82
2022/01/29 05:49:19;;;;;;;24.48;16.90;;;;;;;4.62;92.65;102467.72;10474098;28;20866;-80
2022/01/29 05:54:19;;;;;;;27.45;17.23;;;;;;;4.70;92.18;102446.03;10474649;28;20060;-82
2022/01/29 05:59:21;;;;;;;32.10;19.40;;;;;;;4.70;93.12;102449.50;10501963;28;20504;-81
2022/01/29 06:04:22;;;;;;;36.78;19.88;;;;;;;4.75;92.94;102459.41;10496276;28;20111;-81
2022/01/29 06:09:22;;;;;;;29.50;18.75;;;;;;;4.77;92.92;102455.28;10511123;28;20020;-80
2022/01/29 06:14:26;;;;;;;32.38;19.85;;;;;;;4.79;92.82;102431.34;10498387;28;20494;-80
2022/01/29 06:19:26;;;;;;;34.08;22.10;;;;;;;4.85;92.48;102431.94;10495912;28;20103;-82
2022/01/29 06:24:29;;;;;;;31.88;21.33;;;;;;;4.86;92.58;102427.63;10511775;28;20021;-81
2022/01/29 06:29:30;;;;;;;34.45;21.75;;;;;;;4.91;93.00;102434.19;10505566;28;20687;-79
2022/01/29 06:34:31;;;;;;;39.75;22.80;;;;;;;4.98;91.92;102425.31;10507067;28;20025;-81
2022/01/29 06:39:31;;;;;;;33.78;19.98;;;;;;;5.05;92.13;102424.22;10474693;28;20365;-81
2022/01/29 06:44:32;;;;;;;32.90;22.15;;;;;;;5.03;91.72;102416.28;10495968;28;20044;-81
2022/01/29 06:49:32;;;;;;;31.90;20.90;;;;;;;5.07;92.60;102418.41;10496525;28;20124;-80
2022/01/29 06:54:34;;;;;;;30.27;18.85;;;;;;;5.13;92.17;102420.66;10479261;28;20112;-78
2022/01/29 06:59:35;;;;;;;29.55;19.33;;;;;;;5.14;91.91;102415.63;10478437;28;20041;-79
2022/01/29 07:04:35;;;;;;;30.50;21.33;;;;;;;5.16;91.97;102405.38;10477789;28;20433;-82
2022/01/29 07:09:36;;;;;;;25.50;17.50;;;;;;;5.24;92.12;102408.72;10493186;28;20420;-81
2022/01/29 07:14:39;;;;;;;28.25;18.52;;;;;;;5.24;92.04;102395.72;10491803;28;20067;-80
2022/01/29 07:19:39;;;;;;;28.13;17.95;;;;;;;5.26;91.50;102389.00;10474418;28;20024;-81
2022/01/29 07:24:40;;;;;;;27.17;19.65;;;;;;;5.31;91.80;102379.03;10494106;28;20163;-81
2022/01/29 07:29:40;;;;;;;29.88;17.27;;;;;;;5.33;91.25;102396.59;10494581;28;20059;-81
2022/01/29 07:34:41;;;;;;;25.25;17.45;;;;;;;5.41;91.22;102385.22;10495444;28;20498;-81
2022/01/29 07:39:41;;;;;;;30.42;18.00;;;;;;;5.44;91.54;102377.72;10494110;28;20052;-80
2022/01/29 07:44:42;;;;;;;25.52;18.33;;;;;;;5.50;91.32;102373.88;10493274;28;20076;-81
2022/01/29 07:49:42;;;;;;;30.73;17.38;;;;;;;5.58;91.01;102365.09;10477739;28;20028;-80
2022/01/29 07:54:43;;;;;;;27.23;17.92;;;;;;;5.68;90.92;102369.44;10476485;28;20036;-82
2022/01/29 07:59:43;;;;;;;30.10;16.85;;;;;;;5.66;91.01;102361.53;10494721;28;20115;-81
2022/01/29 08:04:44;;;;;;;28.63;17.80;;;;;;;5.72;90.65;102369.88;10521313;28;20794;-80
2022/01/29 08:09:44;;;;;;;25.33;16.42;;;;;;;5.74;90.59;102370.00;10492415;28;20041;-81
2022/01/29 08:14:45;;;;;;;26.38;18.83;;;;;;;5.78;91.16;102368.63;10492931;28;20024;-81
2022/01/29 08:19:45;;;;;;;25.55;16.85;;;;;;;5.85;90.89;102360.59;10495096;28;20029;-81
2022/01/29 08:24:46;;;;;;;28.52;16.77;;;;;;;5.94;90.18;102356.25;10493889;28;20029;-81
2022/01/29 08:29:46;;;;;;;23.88;14.50;;;;;;;6.01;90.71;102349.94;10458338;28;20024;-82
2022/01/29 08:34:47;;;;;;;24.92;15.10;;;;;;;6.08;90.39;102349.69;10459304;28;20028;-81
2022/01/29 08:39:48;;;;;;;22.50;14.75;;;;;;;6.27;90.62;102343.53;10492205;28;20052;-81
2022/01/29 08:44:48;;;;;;;25.25;15.30;;;;;;;6.34;90.13;102332.00;10491023;28;20539;-81
2022/01/29 08:49:49;;;;;;;25.13;16.15;;;;;;;6.43;89.85;102336.31;10492343;28;20124;-81
2022/01/29 08:54:49;;;;;;;21.42;13.80;;;;;;;6.50;89.25;102316.06;10493029;28;20124;-82
2022/01/29 08:59:50;;;;;;;21.13;13.32;;;;;;;6.62;88.98;102324.91;10493961;28;20131;-82
2022/01/29 09:04:52;;;;;;;20.58;14.07;;;;;;;6.67;88.86;102320.13;10484361;28;20100;-81
2022/01/29 09:09:53;;;;;;;18.98;13.27;;;;;;;6.74;88.24;102322.50;10500026;28;20035;-81
2022/01/29 09:14:54;;;;;;;15.40;9.65;;;;;;;6.81;89.02;102322.25;10497898;28;20044;-79
2022/01/29 09:19:54;;;;;;;21.70;13.73;;;;;;;6.88;88.70;102311.59;10499040;28;20511;-80
2022/01/29 09:24:55;;;;;;;21.83;13.77;;;;;;;7.05;87.60;102302.59;10499831;28;20020;-80
2022/01/29 09:29:55;;;;;;;18.92;13.07;;;;;;;7.06;88.29;102290.50;10470932;28;20064;-79
2022/01/29 09:34:56;;;;;;;18.80;12.52;;;;;;;7.03;87.78;102291.13;10457878;28;20485;-79
2022/01/29 09:39:56;;;;;;;21.00;13.73;;;;;;;7.09;88.20;102287.22;10441274;28;20036;-79
2022/01/29 09:44:57;;;;;;;19.80;13.10;;;;;;;7.08;88.27;102288.94;10474723;28;20132;-80
2022/01/29 09:49:57;;;;;;;19.90;13.38;;;;;;;7.11;88.33;102294.41;10441293;28;20094;-80
2022/01/29 09:54:59;;;;;;;18.80;11.60;;;;;;;7.11;88.90;102306.50;10457411;28;20074;-80
2022/01/29 09:59:59;;;;;;;23.93;13.13;;;;;;;7.09;89.42;102305.44;10456046;28;20511;-79
2022/01/29 10:05:00;;;;;;;23.23;13.95;;;;;;;7.02;89.89;102314.44;10457518;28;20025;-80
2022/01/29 10:10:01;;;;;;;20.75;15.57;;;;;;;7.03;90.74;102309.34;10458054;28;20024;-80
2022/01/29 10:15:06;;;;;;;23.65;13.35;;;;;;;6.96;90.78;102311.31;10473628;28;20548;-80
2022/01/29 10:20:11;;;;;;;26.95;14.82;;;;;;;6.93;91.85;102303.25;10456065;28;20029;-81
2022/01/29 10:25:19;;;;;;;23.42;14.80;;;;;;;6.90;91.77;102315.22;10456345;28;20025;-81
2022/01/29 10:30:20;;;;;;;19.00;14.30;;;;;;;6.87;92.35;102295.81;10455380;28;20425;-83
2022/01/29 10:35:20;;;;;;;21.13;13.93;;;;;;;6.94;92.09;102295.56;10454871;28;20037;-81
2022/01/29 10:40:27;;;;;;;20.70;13.10;;;;;;;7.05;92.13;102286.06;10456361;28;20013;-80
2022/01/29 10:45:34;;;;;;;23.20;13.85;;;;;;;7.07;92.13;102276.69;10439168;28;20051;-82
2022/01/29 10:50:40;;;;;;;18.70;12.30;;;;;;;7.07;92.10;102284.50;10455786;28;20033;-82
2022/01/29 10:56:00;;;;;;;18.83;12.05;;;;;;;7.16;92.75;102269.66;10455211;28;20679;-83
2022/01/29 11:01:17;;;;;;;20.67;13.05;;;;;;;7.10;92.59;102236.97;10438020;28;20021;-82
2022/01/29 11:06:20;;;;;;;16.35;11.93;;;;;;;7.16;92.72;102224.47;10454270;28;20078;-82
2022/01/29 11:11:21;;;;;;;15.50;9.35;;;;;;;7.33;92.86;102202.44;10438212;28;20036;-82
2022/01/29 11:16:21;;;;;;;16.58;8.50;;;;;;;7.54;92.68;102197.19;10474536;28;20104;-82
2022/01/29 11:21:23;;;;;;;12.98;7.28;;;;;;;7.69;91.24;102197.50;10476906;28;20055;-82
2022/01/29 11:26:23;;;;;;;13.50;8.52;;;;;;;7.73;90.72;102203.09;10493713;28;20028;-82
2022/01/29 11:31:28;;;;;;;14.50;6.60;;;;;;;7.79;90.69;102200.97;10452497;28;20068;-82
2022/01/29 11:36:47;;;;;;;12.50;8.10;;;;;;;7.90;89.54;102195.72;10487644;28;20087;-82
2022/01/29 11:42:15;;;;;;;11.23;7.70;;;;;;;8.03;89.30;102193.28;10494107;28;20506;-82
2022/01/29 11:47:22;;;;;;;8.90;6.05;;;;;;;8.12;88.63;102174.84;10494796;28;20040;-81
2022/01/29 11:52:24;;;;;;;14.45;6.70;;;;;;;8.25;87.88;102166.28;10493724;28;20467;-83
2022/01/29 11:57:24;;;;;;;7.53;5.47;;;;;;;8.59;86.71;102132.41;10493001;28;20111;-83
2022/01/29 12:02:28;;;;;;;7.57;4.45;;;;;;;8.83;84.93;102137.66;10494908;28;20543;-86
2022/01/29 12:07:33;;;;;;;8.68;5.03;;;;;;;8.75;84.91;102133.56;10480964;28;20040;-84
2022/01/29 12:12:54;;;;;;;7.07;4.45;;;;;;;8.70;85.09;102116.66;10472180;28;20473;-84
2022/01/29 12:17:59;;;;;;;7.55;4.25;;;;;;;8.80;84.49;102113.94;10478021;28;20055;-86
2022/01/29 12:23:04;;;;;;;9.60;5.22;;;;;;;8.71;84.42;102114.13;10476188;28;20024;-84
2022/01/29 12:28:05;;;;;;;5.43;3.45;;;;;;;8.77;84.26;102088.50;10476517;28;20025;-82
2022/01/29 12:33:20;;;;;;;4.50;3.53;;;;;;;8.92;82.84;102080.91;10476881;28;20139;-83
2022/01/29 12:38:29;;;;;;;6.07;3.20;;;;;;;9.18;81.32;102071.44;10482923;28;20032;-82
2022/01/29 12:43:33;;;;;;;9.48;3.58;;;;;;;9.23;80.90;102067.47;10483392;28;20036;-82
2022/01/29 12:48:34;;;;;;;6.93;3.30;;;;;;;9.19;81.25;102057.59;10499503;28;20042;-82
2022/01/29 12:53:34;;;;;;;7.05;3.33;;;;;;;9.27;80.98;102058.13;10499103;28;20032;-80
2022/01/29 12:58:37;;;;;;;3.30;2.80;;;;;;;9.42;80.52;102058.34;10499926;28;20400;-81
2022/01/29 13:03:38;;;;;;;5.15;2.80;;;;;;;9.47;80.20;102056.97;10484760;28;20033;-80
2022/01/29 13:08:39;;;;;;;5.18;3.25;;;;;;;9.40;79.36;102044.25;10502472;28;20074;-83
2022/01/29 13:13:39;;;;;;;9.02;3.15;;;;;;;9.19;80.47;102034.09;10484999;28;20049;-83
2022/01/29 13:18:40;;;;;;;7.10;2.95;;;;;;;9.22;81.14;102022.94;10502992;28;20056;-84
2022/01/29 13:23:41;;;;;;;5.78;3.20;;;;;;;9.31;80.20;102028.81;10503046;28;20032;-84
2022/01/29 13:28:48;;;;;;;5.23;3.40;;;;;;;9.14;80.75;102011.03;10502870;28;20388;-84
2022/01/29 13:33:49;;;;;;;7.85;2.90;;;;;;;9.26;80.53;102030.19;10501261;28;20033;-83
2022/01/29 13:39:07;;;;;;;6.57;3.92;;;;;;;9.11;80.67;102020.47;10480463;28;20090;-83
2022/01/29 13:44:08;;;;;;;5.78;3.88;;;;;;;9.09;80.82;102021.16;10501462;28;20526;-82
2022/01/29 13:49:10;;;;;;;5.47;4.10;;;;;;;8.99;81.10;102030.03;10499521;28;20067;-83
2022/01/29 13:54:21;;;;;;;8.13;4.97;;;;;;;8.98;81.24;102041.25;10483521;28;20043;-84
2022/01/29 13:59:21;;;;;;;6.80;4.85;;;;;;;9.00;81.50;102036.16;10496683;28;20024;-84
2022/01/29 14:04:23;;;;;;;8.18;3.92;;;;;;;9.02;81.27;102026.75;10493883;28;20054;-82
2022/01/29 14:09:27;;;;;;;7.20;4.82;;;;;;;9.06;81.11;102023.56;10468220;28;20091;-82
2022/01/29 14:14:31;;;;;;;10.60;4.75;;;;;;;9.07;81.01;102017.53;10457870;28;20485;-83
2022/01/29 14:19:32;;;;;;;5.93;2.83;;;;;;;9.15;80.76;102021.59;10458542;28;20052;-82
2022/01/29 14:24:33;;;;;;;8.63;3.58;;;;;;;9.24;80.89;102030.09;10458251;28;20033;-82
2022/01/29 14:29:34;;;;;;;9.77;4.57;;;;;;;9.18;80.41;102034.88;10457043;28;20036;-81
2022/01/29 14:34:35;;;;;;;6.90;4.53;;;;;;;9.09;81.38;102056.00;10474194;28;20029;-81
2022/01/29 14:39:36;;;;;;;8.57;3.88;;;;;;;9.05;81.66;102051.34;10473945;28;20021;-81
2022/01/29 14:44:39;;;;;;;6.60;3.73;;;;;;;9.03;81.48;102052.94;10440594;28;20080;-81
2022/01/29 14:49:41;;;;;;;6.47;4.50;;;;;;;9.01;81.68;102043.19;10456905;28;20048;-81
2022/01/29 14:54:42;;;;;;;6.95;4.70;;;;;;;8.99;81.99;102044.78;10458149;28;20530;-81
2022/01/29 14:59:42;;;;;;;8.07;4.13;;;;;;;8.95;82.06;102060.25;10471394;28;20110;-81
2022/01/29 15:04:53;;;;;;;6.85;3.72;;;;;;;8.93;82.34;102048.78;10456729;28;20539;-80
2022/01/29 15:09:54;;;;;;;10.63;4.15;;;;;;;8.94;82.52;102063.66;10457167;28;20060;-80
2022/01/29 15:14:55;;;;;;;6.80;4.47;;;;;;;8.88;83.63;102051.81;10455988;28;20104;-81
2022/01/29 15:19:55;;;;;;;11.30;5.65;;;;;;;8.76;84.63;102057.06;10456122;28;20158;-79
2022/01/29 15:24:55;;;;;;;9.95;5.28;;;;;;;8.62;85.78;102084.72;10454401;28;20479;-81
2022/01/29 15:29:56;;;;;;;9.38;4.82;;;;;;;8.49;86.64;102062.03;10455782;28;20029;-79
2022/01/29 15:34:57;;;;;;;8.63;5.20;;;;;;;8.39;87.93;102070.81;10456209;28;20037;-80
2022/01/29 15:39:57;;;;;;;11.63;5.10;;;;;;;8.33;88.34;102054.69;10472007;28;20047;-80
2022/01/29 15:44:58;;;;;;;10.07;6.22;;;;;;;8.28;88.74;102062.19;10453992;28;20103;-80
2022/01/29 15:49:58;;;;;;;17.88;6.40;;;;;;;8.29;89.12;102048.38;10455486;28;20037;-80
2022/01/29 15:54:59;;;;;;;9.55;6.75;;;;;;;8.34;89.30;102023.53;10437331;28;20061;-80
2022/01/29 16:00:00;;;;;;;11.90;5.82;;;;;;;8.39;88.53;102026.47;10454331;28;20028;-80
2022/01/29 16:05:01;;;;;;;14.15;6.43;;;;;;;8.34;87.94;102023.53;10421118;28;20378;-80
2022/01/29 16:10:03;;;;;;;8.50;6.50;;;;;;;8.29;87.67;102014.44;10470845;28;20514;-80
2022/01/29 16:15:04;;;;;;;12.40;7.17;;;;;;;8.18;88.08;102008.41;10465023;28;20028;-80
2022/01/29 16:20:05;;;;;;;11.55;6.38;;;;;;;8.17;87.69;102017.03;10515020;28;20032;-80
2022/01/29 16:25:10;;;;;;;13.43;6.88;;;;;;;8.19;87.67;102035.41;10499193;28;20028;-80
2022/01/29 16:30:11;;;;;;;12.15;6.50;;;;;;;8.30;87.58;102028.38;10496002;28;20032;-79
2022/01/29 16:35:13;;;;;;;11.88;5.28;;;;;;;8.37;87.04;102033.28;10495869;28;20067;-84
2022/01/29 16:40:14;;;;;;;8.83;6.63;;;;;;;8.41;86.32;102037.94;10504207;28;20282;-79
2022/01/29 16:45:22;;;;;;;15.82;7.05;;;;;;;8.41;86.58;102050.09;10494295;28;20049;-80
2022/01/29 16:50:22;;;;;;;10.65;4.63;;;;;;;8.47;85.93;102060.97;10509853;28;20480;-79
2022/01/29 16:55:23;;;;;;;9.77;6.20;;;;;;;8.48;85.89;102068.00;10496577;28;20071;-78
2022/01/29 17:00:23;;;;;;;11.35;6.05;;;;;;;8.42;85.43;102073.66;10520938;28;20062;-79
2022/01/29 17:05:24;;;;;;;13.90;6.00;;;;;;;8.35;85.88;102085.34;10503660;28;20396;-79
2022/01/29 17:10:24;;;;;;;11.18;4.45;;;;;;;8.47;85.51;102074.91;10495246;28;20063;-78
2022/01/29 17:15:25;;;;;;;8.15;3.72;;;;;;;8.59;85.26;102077.59;10495034;28;20033;-78
2022/01/29 17:20:28;;;;;;;6.65;4.30;;;;;;;8.58;84.67;102077.47;10497451;28;20031;-78
2022/01/29 17:25:32;;;;;;;12.65;5.25;;;;;;;8.65;84.74;102088.50;10502486;28;21029;-78
2022/01/29 17:30:33;;;;;;;8.75;4.10;;;;;;;8.71;84.47;102106.31;10504809;28;20479;-78
2022/01/29 17:35:35;;;;;;;11.18;4.85;;;;;;;8.74;84.42;102095.19;10503148;28;20067;-78
2022/01/29 17:40:35;;;;;;;8.52;3.95;;;;;;;8.69;84.21;102094.84;10501814;28;20415;-78
2022/01/29 17:45:36;;;;;;;9.07;3.67;;;;;;;8.62;84.46;102082.13;10503792;28;20064;-78
2022/01/29 17:50:37;;;;;;;10.65;4.78;;;;;;;8.73;84.44;102096.88;10498588;28;20117;-78
2022/01/29 17:55:38;;;;;;;15.20;6.15;;;;;;;8.88;84.04;102104.97;10492549;28;20048;-79
2022/01/29 18:00:40;;;;;;;15.18;5.53;;;;;;;9.01;83.21;102103.25;10504617;28;20031;-80
2022/01/29 18:05:40;;;;;;;24.27;7.65;;;;;;;9.05;82.96;102106.19;10475480;28;20029;-82
2022/01/29 18:10:41;;;;;;;13.85;5.03;;;;;;;9.04;83.23;102107.00;10501332;28;20115;-81
2022/01/29 18:15:44;;;;;;;7.28;4.80;;;;;;;9.08;83.08;102129.94;10505923;28;20739;-81
2022/01/29 18:20:44;;;;;;;9.93;5.30;;;;;;;9.04;83.12;102146.16;10497092;28;20044;-78
2022/01/29 18:25:47;;;;;;;9.13;5.00;;;;;;;9.11;82.66;102153.66;10499139;28;20028;-79
2022/01/29 18:30:47;;;;;;;13.35;6.70;;;;;;;9.10;82.68;102170.13;10496877;28;20454;-79
2022/01/29 18:35:48;;;;;;;14.25;6.38;;;;;;;9.15;81.88;102172.16;10496129;28;20125;-78
2022/01/29 18:40:53;;;;;;;10.88;4.63;;;;;;;9.15;82.24;102180.00;10479646;28;20025;-79
2022/01/29 18:45:54;;;;;;;10.07;3.88;;;;;;;9.19;80.92;102195.13;10480521;28;20123;-79
2022/01/29 18:50:58;;;;;;;10.40;4.20;;;;;;;9.30;77.72;102216.84;10496088;28;20032;-80
2022/01/29 18:55:58;;;;;;;14.18;4.55;;;;;;;9.45;70.13;102219.66;10496996;28;20547;-79
2022/01/29 19:00:59;;;;;;;12.57;5.50;;;;;;;9.35;70.26;102255.56;10494888;28;20147;-79
2022/01/29 19:05:59;;;;;;;9.75;4.10;;;;;;;9.07;68.62;102247.34;10479985;28;20029;-79
2022/01/29 19:11:00;;;;;;;17.60;4.10;;;;;;;8.81;68.87;102262.84;10479141;28;20111;-80
2022/01/29 19:16:02;;;;;;;9.65;4.35;;;;;;;8.65;69.40;102270.25;10478066;28;20040;-81
2022/01/29 19:21:03;;;;;;;11.57;5.00;;;;;;;8.34;70.63;102273.03;10479969;28;20033;-80
2022/01/29 19:26:03;;;;;;;15.57;6.90;;;;;;;8.14;71.57;102271.47;10496590;28;20567;-81
2022/01/29 19:31:04;;;;;;;13.68;5.13;;;;;;;8.01;71.31;102293.03;10495170;28;20077;-80
2022/01/29 19:36:06;;;;;;;17.15;4.80;;;;;;;7.89;71.73;102298.16;10496582;28;20036;-78
2022/01/29 19:41:06;;;;;;;17.42;5.50;;;;;;;7.87;72.18;102304.94;10478120;28;20024;-80
2022/01/29 19:46:07;;;;;;;12.35;4.63;;;;;;;7.72;73.19;102304.59;10494546;28;20484;-81
2022/01/29 19:51:07;;;;;;;16.10;7.60;;;;;;;7.57;73.86;102315.56;10495125;28;20503;-80
2022/01/29 19:56:09;;;;;;;10.50;4.95;;;;;;;7.49;74.24;102319.22;10493988;28;20085;-81
2022/01/29 20:01:13;;;;;;;22.93;12.03;;;;;;;7.43;73.63;102323.94;10492974;28;20032;-80
2022/01/29 20:06:13;;;;;;;21.52;8.80;;;;;;;7.27;74.66;102330.44;10478109;28;20050;-80
2022/01/29 20:11:21;;;;;;;23.80;14.55;;;;;;;7.11;74.97;102341.28;10495960;28;20369;-79
2022/01/29 20:16:22;;;;;;;29.10;8.50;;;;;;;7.11;75.06;102345.56;10494354;28;20043;-80
2022/01/29 20:21:23;;;;;;;16.20;6.20;;;;;;;6.98;75.87;102348.81;10491509;28;20024;-81
2022/01/29 20:26:28;;;;;;;22.13;7.13;;;;;;;6.91;75.90;102331.75;10494215;28;20056;-81
2022/01/29 20:31:29;;;;;;;35.53;6.85;;;;;;;6.86;76.07;102343.44;10479063;28;20029;-82
2022/01/29 20:36:31;;;;;;;17.13;7.32;;;;;;;6.78;75.84;102345.41;10495923;28;20480;-81
2022/01/29 20:41:32;;;;;;;29.58;9.02;;;;;;;6.71;76.53;102350.84;10493161;28;20093;-82
2022/01/29 20:46:38;;;;;;;18.02;7.22;;;;;;;6.52;77.18;102361.31;10493950;28;20428;-81
2022/01/29 20:51:42;;;;;;;20.55;7.05;;;;;;;6.51;77.69;102372.50;10494349;28;20048;-82
2022/01/29 20:56:42;;;;;;;19.63;6.90;;;;;;;6.42;76.35;102385.63;10465523;28;20074;-82
2022/01/29 21:01:43;;;;;;;15.32;9.07;;;;;;;6.41;75.63;102373.38;10501230;28;20093;-82
2022/01/29 21:06:45;;;;;;;24.30;7.93;;;;;;;6.40;75.38;102377.66;10503249;28;20035;-82
2022/01/29 21:11:46;;;;;;;22.52;8.10;;;;;;;6.24;75.06;102385.81;10484251;28;20165;-81
2022/01/29 21:16:46;;;;;;;19.85;9.07;;;;;;;6.16;75.57;102394.59;10484688;28;20123;-81
2022/01/29 21:21:47;;;;;;;16.30;6.25;;;;;;;5.99;75.82;102395.63;10500979;28;20072;-81
2022/01/29 21:26:57;;;;;;;19.65;7.20;;;;;;;6.02;75.44;102401.13;10468953;28;20102;-80
2022/01/29 21:31:58;;;;;;;35.08;14.73;;;;;;;5.90;74.88;102402.59;10496580;28;20039;-79
2022/01/29 21:37:03;;;;;;;24.45;7.35;;;;;;;5.76;75.30;102419.53;10498285;28;20031;-78
2022/01/29 21:42:05;;;;;;;20.45;6.68;;;;;;;5.58;75.50;102419.66;10460013;28;20060;-78
2022/01/29 21:47:06;;;;;;;20.02;7.07;;;;;;;5.35;76.94;102420.09;10459728;28;20389;-79
2022/01/29 21:52:07;;;;;;;25.63;7.82;;;;;;;5.21;77.87;102424.88;10481918;28;20054;-78
2022/01/29 21:57:08;;;;;;;25.90;8.77;;;;;;;5.08;78.58;102427.09;10501049;28;20028;-78
2022/01/29 22:02:09;;;;;;;18.65;7.47;;;;;;;5.06;78.29;102431.22;10484232;28;20027;-79
2022/01/29 22:07:10;;;;;;;34.17;9.45;;;;;;;4.90;78.67;102440.13;10499398;28;20028;-79
2022/01/29 22:12:10;;;;;;;23.08;6.47;;;;;;;5.03;78.29;102425.75;10499748;28;20035;-79
2022/01/29 22:17:11;;;;;;;25.67;7.70;;;;;;;4.95;78.65;102454.47;10500411;28;20971;-78
2022/01/29 22:22:12;;;;;;;16.77;6.10;;;;;;;5.05;77.92;102444.97;10466579;28;20625;-79
2022/01/29 22:27:14;;;;;;;22.77;9.60;;;;;;;5.11;78.15;102451.69;10499595;28;20058;-78
2022/01/29 22:32:15;;;;;;;16.85;6.72;;;;;;;5.04;76.75;102454.44;10499768;28;20951;-79
2022/01/29 22:37:16;;;;;;;37.45;9.57;;;;;;;4.87;78.07;102459.72;10499030;28;20059;-78
2022/01/29 22:42:17;;;;;;;24.58;7.85;;;;;;;4.84;77.04;102463.84;10482023;28;20441;-79
2022/01/29 22:47:17;;;;;;;16.98;6.40;;;;;;;4.71;77.48;102466.00;10498454;28;20369;-79
2022/01/29 22:52:18;;;;;;;23.75;6.45;;;;;;;4.45;78.48;102468.63;10499162;28;20024;-79
2022/01/29 22:57:18;;;;;;;23.88;9.27;;;;;;;4.29;78.90;102461.94;10480073;28;20399;-79
2022/01/29 23:02:19;;;;;;;20.48;6.45;;;;;;;4.34;79.07;102467.59;10498327;28;20067;-78
2022/01/29 23:07:19;;;;;;;18.95;7.05;;;;;;;4.32;78.27;102482.97;10480016;28;20106;-78
2022/01/29 23:12:26;;;;;;;27.95;9.23;;;;;;;4.24;78.74;102487.41;10497961;28;20108;-79